Time;durP1;ratioP1;P1;durP2;ratioP2;P2;SDS_P1;SDS_P2;PMS_P1;PMS_P2;Temp;Humidity;BMP_temperature;BMP_pressure;BME280_temperature;BME280_humidity;BME280_pressure;Samples;Min_cycle;Max_cycle;Signal;HPM_P1;HPM_P2
2021/12/29 00:01:47;;;;;;;16.30;6.13;;;;;;;;;;4997497;28;20043;-69
2021/12/29 00:04:13;;;;;;;15.77;5.60;;;7.60;99.90;;;;;;4998204;28;20401;-69
2021/12/29 00:06:39;;;;;;;15.88;6.20;;;7.50;99.90;;;;;;4995771;28;20045;-69
2021/12/29 00:09:04;;;;;;;18.98;7.32;;;7.50;99.90;;;;;;4998314;28;20470;-69
2021/12/29 00:11:31;;;;;;;25.77;7.88;;;7.50;99.90;;;;;;4998270;28;20034;-69
2021/12/29 00:13:58;;;;;;;23.20;8.43;;;;;;;;;;4998013;28;20129;-69
2021/12/29 00:16:24;;;;;;;25.90;7.63;;;7.60;99.90;;;;;;4977167;28;20473;-69
2021/12/29 00:18:50;;;;;;;22.42;7.78;;;7.40;99.90;;;;;;4962504;28;20054;-69
2021/12/29 00:21:15;;;;;;;26.20;7.90;;;7.60;99.90;;;;;;4944958;28;20050;-69
2021/12/29 00:23:41;;;;;;;26.77;8.98;;;7.60;99.90;;;;;;4978744;28;20047;-70
2021/12/29 00:26:07;;;;;;;32.30;9.13;;;7.50;99.90;;;;;;4961871;28;20497;-69
2021/12/29 00:28:33;;;;;;;25.35;7.95;;;;;;;;;;4978660;28;20089;-69
2021/12/29 00:30:58;;;;;;;22.48;8.38;;;7.50;99.90;;;;;;4976685;28;20050;-69
2021/12/29 00:33:24;;;;;;;27.95;10.00;;;7.60;99.90;;;;;;4960525;28;20434;-69
2021/12/29 00:35:50;;;;;;;29.27;9.77;;;7.70;99.90;;;;;;4977421;28;20053;-70
2021/12/29 00:38:16;;;;;;;37.85;10.35;;;;;;;;;;4979298;28;20042;-69
2021/12/29 00:40:42;;;;;;;35.03;10.48;;;7.80;99.90;;;;;;4954614;29;20454;-69
2021/12/29 00:43:08;;;;;;;38.65;10.65;;;7.60;99.90;;;;;;4938981;29;20175;-69
2021/12/29 00:45:36;;;;;;;52.60;13.43;;;7.50;99.90;;;;;;4971423;28;20051;-69
2021/12/29 00:48:04;;;;;;;42.60;12.80;;;7.80;99.90;;;;;;4938915;29;20078;-69
2021/12/29 00:50:33;;;;;;;37.78;11.65;;;7.70;99.90;;;;;;4940959;29;20051;-67
2021/12/29 00:52:59;;;;;;;36.88;11.43;;;7.50;99.90;;;;;;4957334;28;20043;-67
2021/12/29 00:55:25;;;;;;;37.53;12.23;;;7.60;99.90;;;;;;4957706;28;20441;-67
2021/12/29 00:57:51;;;;;;;38.25;12.45;;;;;;;;;;4957245;28;20047;-67
2021/12/29 01:00:20;;;;;;;41.15;11.00;;;7.70;99.90;;;;;;4939547;29;20047;-67
2021/12/29 01:02:46;;;;;;;33.70;10.13;;;7.70;99.90;;;;;;4956848;29;20504;-66
2021/12/29 01:05:14;;;;;;;44.20;10.55;;;7.60;99.90;;;;;;4941154;29;20039;-67
2021/12/29 01:07:41;;;;;;;48.17;11.90;;;7.60;99.90;;;;;;4941647;29;20039;-69
2021/12/29 01:10:08;;;;;;;53.20;13.13;;;7.60;99.90;;;;;;4957304;29;20493;-69
2021/12/29 01:12:34;;;;;;;53.47;13.05;;;7.80;99.90;;;;;;4956480;29;20494;-69
2021/12/29 01:15:02;;;;;;;72.78;13.15;;;;;;;;;;4958121;28;20042;-69
2021/12/29 01:17:28;;;;;;;55.17;13.65;;;7.70;99.90;;;;;;4956910;29;20118;-69
2021/12/29 01:19:54;;;;;;;60.97;13.27;;;7.60;99.90;;;;;;4956550;29;20043;-69
2021/12/29 01:22:21;;;;;;;47.15;12.07;;;7.60;99.90;;;;;;4941899;29;20053;-69
2021/12/29 01:24:47;;;;;;;62.28;13.95;;;7.80;99.90;;;;;;4959625;28;20039;-69
2021/12/29 01:27:14;;;;;;;66.07;14.57;;;7.60;99.90;;;;;;4940834;29;20050;-69
2021/12/29 01:29:41;;;;;;;44.47;12.43;;;7.90;99.90;;;;;;4958128;28;20054;-69
2021/12/29 01:32:07;;;;;;;63.45;13.57;;;;;;;;;;4940013;29;20047;-69
2021/12/29 01:34:33;;;;;;;56.47;13.57;;;7.60;99.90;;;;;;4957547;29;20433;-69
2021/12/29 01:36:59;;;;;;;61.42;13.43;;;7.60;99.90;;;;;;4939898;29;20051;-69
2021/12/29 01:39:25;;;;;;;57.72;13.63;;;7.50;99.90;;;;;;4957528;28;20058;-67
2021/12/29 01:41:54;;;;;;;41.00;11.07;;;7.70;99.90;;;;;;4972518;28;20070;-67
2021/12/29 01:44:23;;;;;;;49.90;12.23;;;;;;;;;;4956069;28;20047;-67
2021/12/29 01:46:49;;;;;;;50.50;10.88;;;;;;;;;;4955918;28;20047;-67
2021/12/29 01:49:15;;;;;;;39.08;11.38;;;7.70;99.90;;;;;;4956127;29;20409;-67
2021/12/29 01:51:48;;;;;;;59.33;11.50;;;7.60;99.90;;;;;;4967847;28;20039;-66
2021/12/29 01:54:23;;;;;;;63.00;10.05;;;7.70;99.90;;;;;;4976563;28;20106;-69
2021/12/29 01:56:51;;;;;;;34.67;9.90;;;7.60;99.90;;;;;;4975811;28;20551;-69
2021/12/29 01:59:17;;;;;;;43.10;10.15;;;7.50;99.90;;;;;;4977293;28;20038;-69
2021/12/29 02:01:43;;;;;;;34.53;9.60;;;7.60;99.90;;;;;;4975440;28;20043;-69
2021/12/29 02:04:09;;;;;;;41.80;11.05;;;7.60;99.90;;;;;;4975318;28;20053;-69
2021/12/29 02:06:36;;;;;;;36.22;10.10;;;7.60;99.90;;;;;;4959110;28;20045;-69
2021/12/29 02:09:03;;;;;;;32.67;9.43;;;7.80;99.90;;;;;;4959852;28;20042;-69
2021/12/29 02:11:30;;;;;;;42.10;10.30;;;7.50;99.90;;;;;;4976840;28;20043;-69
2021/12/29 02:14:01;;;;;;;28.13;9.05;;;7.60;99.90;;;;;;4959982;28;20074;-67
2021/12/29 02:16:28;;;;;;;32.08;11.05;;;7.80;99.90;;;;;;4959237;28;20465;-67
2021/12/29 02:18:55;;;;;;;33.88;10.73;;;7.70;99.90;;;;;;4974691;28;20428;-68
2021/12/29 02:21:23;;;;;;;40.28;12.30;;;7.60;99.90;;;;;;4976451;28;20095;-69
2021/12/29 02:26:33;;;;;;;48.50;14.60;;;7.60;99.90;;;;;;4975170;28;20089;-69
2021/12/29 02:29:01;;;;;;;36.38;12.82;;;7.80;99.90;;;;;;4960059;28;20046;-69
2021/12/29 02:31:27;;;;;;;39.78;13.68;;;7.80;99.90;;;;;;4976360;28;20401;-69
2021/12/29 02:33:54;;;;;;;42.58;14.85;;;7.90;99.90;;;;;;4976328;28;20038;-69
2021/12/29 02:36:21;;;;;;;44.45;15.60;;;8.10;99.90;;;;;;4976823;28;20043;-69
2021/12/29 02:38:51;;;;;;;42.67;15.55;;;8.10;99.90;;;;;;4976197;28;20064;-69
2021/12/29 02:41:17;;;;;;;35.58;13.93;;;7.90;99.90;;;;;;4977664;28;20058;-69
2021/12/29 02:43:45;;;;;;;38.08;15.02;;;8.00;99.90;;;;;;4996916;28;20031;-69
2021/12/29 02:46:12;;;;;;;47.83;16.67;;;8.00;99.90;;;;;;5000139;28;20034;-69
2021/12/29 02:48:45;;;;;;;46.17;17.13;;;8.10;99.90;;;;;;4999548;28;20073;-68
2021/12/29 02:51:11;;;;;;;44.17;16.88;;;;;;;;;;4981706;28;20558;-69
2021/12/29 02:53:37;;;;;;;39.97;16.63;;;8.20;99.90;;;;;;4998829;28;20038;-69
2021/12/29 02:56:04;;;;;;;42.22;16.15;;;8.10;99.90;;;;;;4999819;28;20503;-69
2021/12/29 02:58:31;;;;;;;37.67;16.38;;;8.20;99.90;;;;;;4999167;28;20446;-69
2021/12/29 03:00:59;;;;;;;32.38;13.35;;;8.20;99.90;;;;;;4998940;28;20400;-69
2021/12/29 03:03:27;;;;;;;25.15;11.52;;;8.20;99.90;;;;;;4982099;28;20128;-68
2021/12/29 03:05:54;;;;;;;23.67;12.93;;;8.20;99.90;;;;;;4999331;28;20046;-68
2021/12/29 03:08:21;;;;;;;23.77;11.32;;;8.20;99.90;;;;;;4999355;28;20047;-69
2021/12/29 03:10:52;;;;;;;24.25;11.07;;;8.10;99.90;;;;;;4995684;28;20070;-69
2021/12/29 03:13:18;;;;;;;20.85;10.63;;;8.20;99.90;;;;;;4980425;28;20042;-69
2021/12/29 03:15:44;;;;;;;22.83;11.65;;;8.20;99.90;;;;;;4980922;28;20046;-69
2021/12/29 03:18:09;;;;;;;18.27;10.45;;;8.10;99.90;;;;;;4962909;28;20126;-69
2021/12/29 03:20:35;;;;;;;24.17;10.68;;;8.20;99.90;;;;;;4980278;28;20477;-69
2021/12/29 03:23:01;;;;;;;20.83;11.32;;;;;;;;;;4978525;28;20054;-69
2021/12/29 03:25:27;;;;;;;20.83;10.60;;;8.20;99.90;;;;;;4978069;28;20038;-69
2021/12/29 03:27:59;;;;;;;18.15;9.40;;;8.20;99.90;;;;;;4962777;28;20100;-69
2021/12/29 03:30:28;;;;;;;17.60;9.80;;;8.20;99.90;;;;;;4962728;28;20126;-68
2021/12/29 03:33:03;;;;;;;21.63;10.57;;;8.10;99.90;;;;;;4962415;28;20533;-69
2021/12/29 03:35:34;;;;;;;16.58;10.65;;;8.40;99.90;;;;;;4978432;28;20079;-69
2021/12/29 03:38:01;;;;;;;25.02;11.80;;;7.90;99.90;;;;;;4978607;28;20034;-68
2021/12/29 03:40:27;;;;;;;16.60;9.82;;;8.30;99.90;;;;;;4961614;28;20058;-68
2021/12/29 03:42:54;;;;;;;22.35;10.80;;;7.90;99.90;;;;;;4962034;28;20046;-68
2021/12/29 03:45:19;;;;;;;23.60;11.35;;;8.10;99.90;;;;;;4961589;28;20046;-68
2021/12/29 03:47:46;;;;;;;14.32;9.18;;;8.10;99.90;;;;;;4961817;28;20042;-68
2021/12/29 03:50:12;;;;;;;21.05;9.90;;;;;;;;;;4962863;28;20111;-68
2021/12/29 03:52:37;;;;;;;17.60;9.68;;;8.20;99.90;;;;;;4999232;28;20034;-68
2021/12/29 03:55:03;;;;;;;15.80;9.38;;;8.20;99.90;;;;;;4997076;28;20194;-68
2021/12/29 03:57:29;;;;;;;19.00;9.73;;;8.20;99.90;;;;;;4997122;28;20042;-68
2021/12/29 03:59:55;;;;;;;23.27;11.55;;;8.20;99.90;;;;;;4996865;28;20038;-68
2021/12/29 04:02:20;;;;;;;22.60;10.85;;;8.20;99.90;;;;;;4981296;28;20070;-68
2021/12/29 04:04:46;;;;;;;20.35;10.75;;;;;;;;;;4980954;28;20427;-68
2021/12/29 04:07:12;;;;;;;20.15;9.98;;;8.10;99.90;;;;;;4997646;28;20492;-68
2021/12/29 04:09:38;;;;;;;22.40;10.85;;;8.30;99.90;;;;;;4998675;28;20046;-68
2021/12/29 04:12:04;;;;;;;21.65;11.82;;;8.30;99.90;;;;;;4979925;28;20061;-69
2021/12/29 04:14:30;;;;;;;25.38;12.07;;;8.20;99.90;;;;;;4998779;28;20034;-69
2021/12/29 04:16:57;;;;;;;22.40;10.68;;;8.40;99.90;;;;;;4996996;28;20038;-69
2021/12/29 04:19:32;;;;;;;21.33;11.38;;;8.30;99.90;;;;;;4997027;28;20053;-69
2021/12/29 04:21:58;;;;;;;23.40;12.85;;;8.10;99.90;;;;;;4981558;28;20038;-69
2021/12/29 04:24:24;;;;;;;25.13;12.07;;;9.80;99.90;;;;;;4980515;28;20505;-68
2021/12/29 04:26:51;;;;;;;20.73;10.70;;;8.30;99.90;;;;;;4997682;28;20126;-69
2021/12/29 04:29:17;;;;;;;26.75;12.93;;;;;;;;;;4981214;28;20121;-69
2021/12/29 04:31:43;;;;;;;30.27;12.40;;;8.30;99.90;;;;;;4997411;28;20085;-69
2021/12/29 04:34:10;;;;;;;23.60;12.68;;;8.20;99.90;;;;;;4996783;28;20050;-69
2021/12/29 04:36:35;;;;;;;25.52;12.05;;;8.20;99.90;;;;;;4996401;28;20069;-68
2021/12/29 04:39:04;;;;;;;34.08;13.70;;;8.10;99.90;;;;;;4997532;28;20515;-67
2021/12/29 04:41:29;;;;;;;34.45;15.10;;;8.20;99.90;;;;;;4995753;28;20411;-67
2021/12/29 04:43:55;;;;;;;31.40;13.98;;;8.10;99.90;;;;;;4995477;28;20050;-67
2021/12/29 04:46:28;;;;;;;33.13;14.75;;;8.10;99.90;;;;;;4995802;28;20092;-67
2021/12/29 04:48:59;;;;;;;35.90;15.02;;;8.10;99.90;;;;;;4995854;28;20504;-66
2021/12/29 04:51:33;;;;;;;28.23;13.63;;;;;;;;;;4996417;28;20081;-66
2021/12/29 04:54:00;;;;;;;31.42;13.23;;;8.10;99.90;;;;;;4996584;28;20042;-67
2021/12/29 04:56:25;;;;;;;33.63;12.88;;;8.10;99.90;;;;;;4976618;28;20031;-67
2021/12/29 04:58:51;;;;;;;30.17;14.02;;;8.10;99.90;;;;;;4980329;28;20097;-69
2021/12/29 05:01:17;;;;;;;31.10;14.98;;;7.90;99.90;;;;;;4971934;28;20046;-70
2021/12/29 05:03:44;;;;;;;37.88;16.13;;;8.10;99.90;;;;;;4962554;28;20045;-68
2021/12/29 05:08:36;;;;;;;28.63;14.10;;;8.20;99.90;;;;;;4975332;28;20621;-69
2021/12/29 05:11:13;;;;;;;32.45;15.23;;;8.10;99.90;;;;;;4976179;28;20039;-69
2021/12/29 05:13:40;;;;;;;36.53;16.55;;;8.10;99.90;;;;;;4975042;28;20445;-70
2021/12/29 05:16:07;;;;;;;32.28;14.70;;;;;;;;;;4975922;28;20436;-69
2021/12/29 05:18:35;;;;;;;38.97;15.02;;;8.10;99.90;;;;;;4984366;28;20034;-69
2021/12/29 05:21:02;;;;;;;25.80;14.00;;;8.10;99.90;;;;;;4954556;28;20388;-69
2021/12/29 05:23:28;;;;;;;30.77;15.63;;;8.10;99.90;;;;;;4978781;28;20042;-69
2021/12/29 05:25:55;;;;;;;26.70;14.65;;;8.10;99.90;;;;;;4965398;28;20045;-69
2021/12/29 05:28:21;;;;;;;36.85;15.95;;;8.10;99.90;;;;;;4957540;28;20045;-69
2021/12/29 05:30:48;;;;;;;37.45;15.55;;;8.00;99.90;;;;;;4976168;28;20134;-69
2021/12/29 05:33:15;;;;;;;31.02;15.45;;;8.00;99.90;;;;;;4976117;28;20042;-68
2021/12/29 05:35:40;;;;;;;34.58;14.85;;;8.10;99.90;;;;;;4990273;28;20038;-69
2021/12/29 05:38:06;;;;;;;31.35;15.05;;;8.10;99.90;;;;;;4976245;28;20038;-69
2021/12/29 05:40:32;;;;;;;33.63;15.75;;;8.10;99.90;;;;;;4973590;28;20149;-70
2021/12/29 05:42:58;;;;;;;26.08;13.82;;;8.00;99.90;;;;;;4974526;28;20117;-68
2021/12/29 05:45:25;;;;;;;33.63;15.25;;;8.20;99.90;;;;;;4991825;28;20046;-69
2021/12/29 05:47:52;;;;;;;31.40;14.73;;;;;;;;;;4974925;28;20053;-68
2021/12/29 05:50:20;;;;;;;26.50;14.18;;;8.10;99.90;;;;;;4992610;28;20053;-69
2021/12/29 05:52:46;;;;;;;30.00;13.98;;;8.10;99.90;;;;;;4992465;28;20044;-72
2021/12/29 05:55:13;;;;;;;32.72;14.55;;;8.10;99.90;;;;;;4993296;28;20480;-70
2021/12/29 05:57:39;;;;;;;29.63;13.50;;;8.10;99.90;;;;;;4981450;28;20068;-70
2021/12/29 06:00:10;;;;;;;38.70;14.23;;;8.10;99.90;;;;;;4955205;28;20480;-70
2021/12/29 06:02:36;;;;;;;36.38;13.98;;;8.10;99.90;;;;;;4954693;28;20378;-70
2021/12/29 06:05:03;;;;;;;34.50;14.63;;;8.10;99.90;;;;;;4973771;28;20485;-70
2021/12/29 06:07:28;;;;;;;38.17;14.60;;;8.10;99.90;;;;;;4955387;28;20485;-70
2021/12/29 06:09:54;;;;;;;35.42;14.27;;;;;;;;;;4972047;28;20038;-70
2021/12/29 06:12:20;;;;;;;33.17;14.15;;;8.10;99.90;;;;;;4984953;28;20092;-70
2021/12/29 06:14:47;;;;;;;32.63;14.38;;;;;;;;;;4974343;28;20492;-69
2021/12/29 06:17:13;;;;;;;36.65;14.00;;;8.00;99.90;;;;;;4989461;28;20043;-70
2021/12/29 06:19:40;;;;;;;31.42;13.82;;;8.00;99.90;;;;;;4974208;28;20034;-70
2021/12/29 06:22:09;;;;;;;35.60;14.20;;;8.00;99.90;;;;;;4980351;28;20054;-67
2021/12/29 06:24:35;;;;;;;36.33;13.63;;;8.00;99.90;;;;;;4999087;28;20057;-67
2021/12/29 06:27:00;;;;;;;36.42;13.27;;;7.90;99.90;;;;;;4981830;28;20046;-67
2021/12/29 06:29:26;;;;;;;29.95;12.15;;;8.00;99.90;;;;;;4990258;28;20555;-67
2021/12/29 06:31:52;;;;;;;39.50;14.55;;;8.20;99.90;;;;;;4988248;28;20056;-67
2021/12/29 06:34:18;;;;;;;33.95;14.23;;;;;;;;;;4984645;28;20092;-66
2021/12/29 06:36:44;;;;;;;32.25;13.70;;;;;;;;;;4981443;28;20058;-66
2021/12/29 06:39:10;;;;;;;34.00;13.70;;;7.90;99.90;;;;;;4998551;28;20500;-66
2021/12/29 06:41:36;;;;;;;34.08;13.55;;;;;;;;;;4980727;28;20054;-67
2021/12/29 06:44:02;;;;;;;44.33;13.13;;;7.90;99.90;;;;;;4981061;28;20081;-68
2021/12/29 06:46:28;;;;;;;32.75;13.75;;;7.90;99.90;;;;;;4996300;28;20084;-70
2021/12/29 06:48:54;;;;;;;33.50;13.57;;;;;;;;;;4980255;28;20082;-71
2021/12/29 06:51:19;;;;;;;39.50;13.98;;;8.10;99.90;;;;;;4985535;28;20050;-68
2021/12/29 06:53:45;;;;;;;35.80;12.98;;;8.10;99.90;;;;;;4982395;28;20040;-66
2021/12/29 06:56:11;;;;;;;36.13;13.10;;;;;;;;;;4980092;28;20048;-67
2021/12/29 06:58:37;;;;;;;31.80;12.55;;;8.10;99.90;;;;;;4972496;28;20041;-66
2021/12/29 07:01:03;;;;;;;29.02;12.80;;;8.00;99.90;;;;;;4993133;28;20556;-66
2021/12/29 07:03:29;;;;;;;32.70;13.20;;;8.20;99.90;;;;;;4997535;28;20439;-67
2021/12/29 07:05:55;;;;;;;26.80;12.20;;;;;;;;;;4978961;28;20129;-67
2021/12/29 07:08:21;;;;;;;36.13;11.00;;;8.10;99.90;;;;;;4997493;28;20608;-66
2021/12/29 07:10:47;;;;;;;28.20;12.13;;;8.10;99.90;;;;;;4997165;28;20046;-66
2021/12/29 07:13:13;;;;;;;35.60;12.23;;;8.10;99.90;;;;;;4988113;28;20037;-66
2021/12/29 07:15:39;;;;;;;39.92;11.45;;;;;;;;;;4997399;28;20503;-66
2021/12/29 07:18:05;;;;;;;26.73;10.65;;;8.10;99.90;;;;;;4997329;28;20420;-66
2021/12/29 07:20:31;;;;;;;28.17;11.50;;;8.20;99.90;;;;;;4996837;28;20042;-66
2021/12/29 07:22:57;;;;;;;29.40;10.90;;;;;;;;;;4996950;28;20475;-66
2021/12/29 07:25:24;;;;;;;33.92;11.13;;;8.30;99.90;;;;;;4996791;28;20053;-66
2021/12/29 07:27:50;;;;;;;29.45;10.15;;;;;;;;;;4997155;28;20042;-67
2021/12/29 07:30:16;;;;;;;38.83;11.32;;;;;;;;;;4994244;28;20496;-66
2021/12/29 07:32:42;;;;;;;40.50;12.05;;;;;;;;;;4994277;28;20073;-65
2021/12/29 07:35:08;;;;;;;46.97;12.43;;;;;;;;;;4975613;28;20050;-66
2021/12/29 07:37:34;;;;;;;29.60;12.30;;;;;;;;;;4990410;28;20046;-66
2021/12/29 07:40:05;;;;;;;31.23;11.05;;;;;;;;;;4990017;28;20124;-66
2021/12/29 07:42:31;;;;;;;30.63;10.88;;;;;;;;;;4973173;28;20414;-66
2021/12/29 07:44:57;;;;;;;34.80;11.48;;;;;;;;;;4985114;28;20129;-66
2021/12/29 07:47:23;;;;;;;31.73;11.57;;;;;;;;;;4979086;28;20053;-66
2021/12/29 07:49:49;;;;;;;40.55;11.73;;;;;;;;;;4974953;28;20108;-66
2021/12/29 07:52:16;;;;;;;34.78;11.32;;;;;;;;;;4971618;28;20092;-66
2021/12/29 07:54:42;;;;;;;33.63;9.63;;;;;;;;;;4990210;28;20088;-66
2021/12/29 07:57:08;;;;;;;37.20;11.20;;;;;;;;;;4977642;28;20077;-66
2021/12/29 07:59:34;;;;;;;34.70;11.10;;;;;;;;;;4988886;28;20050;-65
2021/12/29 08:02:01;;;;;;;29.02;11.00;;;8.20;99.90;;;;;;4989257;28;20053;-65
2021/12/29 08:04:27;;;;;;;30.63;9.73;;;;;;;;;;4967560;28;20057;-65
2021/12/29 08:06:53;;;;;;;24.92;10.00;;;8.10;99.90;;;;;;4968483;28;20493;-65
2021/12/29 08:09:19;;;;;;;25.92;9.95;;;;;;;;;;4969968;28;20042;-67
2021/12/29 08:11:46;;;;;;;24.73;9.43;;;;;;;;;;4971128;28;20042;-69
2021/12/29 08:14:12;;;;;;;24.90;9.15;;;;;;;;;;4984566;28;20042;-69
2021/12/29 08:16:38;;;;;;;24.40;8.60;;;;;;;;;;4991951;28;20089;-69
2021/12/29 08:19:04;;;;;;;19.42;8.82;;;8.20;99.90;;;;;;4991834;28;20039;-70
2021/12/29 08:21:30;;;;;;;24.70;9.10;;;8.10;99.90;;;;;;4991959;28;20049;-70
2021/12/29 08:23:56;;;;;;;20.60;8.43;;;;;;;;;;4974811;28;20046;-71
2021/12/29 08:26:22;;;;;;;15.52;7.20;;;;;;;;;;4991142;28;20054;-71
2021/12/29 08:28:50;;;;;;;21.67;8.80;;;;;;;;;;4992294;28;20412;-71
2021/12/29 08:31:16;;;;;;;16.73;8.38;;;;;;;;;;4992359;28;20050;-70
2021/12/29 08:33:42;;;;;;;20.20;8.23;;;;;;;;;;4990966;28;20423;-70
2021/12/29 08:36:08;;;;;;;27.50;8.80;;;8.20;99.90;;;;;;4975133;28;20046;-70
2021/12/29 08:38:35;;;;;;;25.35;8.02;;;8.40;99.90;;;;;;4985557;28;20562;-69
2021/12/29 08:41:02;;;;;;;19.70;8.02;;;8.10;99.90;;;;;;4984463;28;20076;-69
2021/12/29 08:43:28;;;;;;;27.08;8.63;;;;;;;;;;4972279;28;20488;-69
2021/12/29 08:45:54;;;;;;;23.05;7.63;;;;;;;;;;4985265;28;20042;-69
2021/12/29 08:48:20;;;;;;;19.02;7.93;;;;;;;;;;4985505;28;20522;-69
2021/12/29 08:50:45;;;;;;;29.33;8.88;;;8.30;99.90;;;;;;4985483;28;20101;-69
2021/12/29 08:53:12;;;;;;;18.40;8.23;;;8.40;99.90;;;;;;4986924;28;20139;-69
2021/12/29 08:55:44;;;;;;;17.10;7.30;;;8.50;99.90;;;;;;4987588;28;20542;-69
2021/12/29 08:58:10;;;;;;;15.88;6.53;;;;;;;;;;4987745;28;20092;-69
2021/12/29 09:00:36;;;;;;;17.80;7.10;;;;;;;;;;4988945;28;20042;-69
2021/12/29 09:03:02;;;;;;;20.30;7.15;;;;;;;;;;4987590;28;20046;-69
2021/12/29 09:05:28;;;;;;;18.67;7.05;;;;;;;;;;4987612;28;20381;-69
2021/12/29 09:07:54;;;;;;;22.23;7.30;;;;;;;;;;4988026;28;20049;-69
2021/12/29 09:10:20;;;;;;;19.85;7.03;;;;;;;;;;4992677;28;20034;-69
2021/12/29 09:12:51;;;;;;;18.30;7.35;;;8.40;99.90;;;;;;4984784;28;20054;-69
2021/12/29 09:15:18;;;;;;;23.77;7.78;;;;;;;;;;4992314;28;20487;-69
2021/12/29 09:17:44;;;;;;;24.27;8.52;;;8.40;99.90;;;;;;4992151;28;20042;-69
2021/12/29 09:20:27;;;;;;;24.10;9.60;;;8.50;99.90;;;;;;4970765;28;20049;-69
2021/12/29 09:23:00;;;;;;;22.33;8.57;;;8.30;99.90;;;;;;4979573;28;20515;-69
2021/12/29 09:25:26;;;;;;;24.75;9.23;;;8.40;99.90;;;;;;4972242;28;20057;-69
2021/12/29 09:27:52;;;;;;;23.45;8.85;;;8.40;99.90;;;;;;4973483;28;20034;-68
2021/12/29 09:30:19;;;;;;;20.23;7.90;;;8.60;99.90;;;;;;4990954;28;20033;-69
2021/12/29 09:32:46;;;;;;;25.65;9.13;;;8.60;99.90;;;;;;4973023;28;20053;-71
2021/12/29 09:35:12;;;;;;;25.38;9.10;;;8.50;99.90;;;;;;4986320;28;20042;-67
2021/12/29 09:37:38;;;;;;;26.25;9.07;;;;;;;;;;4978516;28;20052;-67
2021/12/29 09:40:04;;;;;;;22.83;9.00;;;;;;;;;;4956226;28;20455;-69
2021/12/29 09:42:30;;;;;;;19.13;8.95;;;;;;;;;;4963390;28;20081;-69
2021/12/29 09:44:56;;;;;;;18.35;10.02;;;8.50;99.90;;;;;;4980785;28;20073;-69
2021/12/29 09:47:22;;;;;;;21.48;9.52;;;;;;;;;;4965066;28;20050;-69
2021/12/29 09:49:48;;;;;;;19.00;8.50;;;8.50;99.90;;;;;;4967246;28;20046;-69
2021/12/29 09:52:14;;;;;;;22.50;9.05;;;8.60;99.90;;;;;;4985766;28;20042;-69
2021/12/29 09:54:40;;;;;;;21.85;9.27;;;;;;;;;;4977766;28;20074;-69
2021/12/29 09:57:06;;;;;;;18.85;8.48;;;;;;;;;;4967999;28;20510;-68
2021/12/29 09:59:32;;;;;;;20.58;8.10;;;;;;;;;;4985874;28;20110;-69
2021/12/29 10:01:58;;;;;;;20.00;8.00;;;;;;;;;;4980257;28;20412;-69
2021/12/29 10:04:25;;;;;;;19.85;8.23;;;8.80;99.90;;;;;;4972280;28;20035;-69
2021/12/29 10:06:51;;;;;;;22.15;6.68;;;8.60;99.90;;;;;;4967458;28;20082;-68
2021/12/29 10:09:18;;;;;;;17.95;7.50;;;8.70;99.90;;;;;;4989949;28;20120;-69
2021/12/29 10:11:45;;;;;;;18.50;7.95;;;8.70;99.90;;;;;;4991237;28;20067;-69
2021/12/29 10:14:14;;;;;;;14.48;6.40;;;8.60;99.90;;;;;;4973143;28;20042;-68
2021/12/29 10:16:41;;;;;;;11.57;6.03;;;8.70;99.90;;;;;;4989186;28;20046;-69
2021/12/29 10:19:12;;;;;;;16.80;6.55;;;8.70;99.90;;;;;;4985422;28;20074;-69
2021/12/29 10:21:42;;;;;;;21.30;6.10;;;8.70;99.90;;;;;;4971553;28;20126;-69
2021/12/29 10:24:08;;;;;;;20.45;6.78;;;8.70;99.90;;;;;;4973065;28;20035;-69
2021/12/29 10:26:36;;;;;;;23.02;6.18;;;8.70;99.90;;;;;;4972175;28;20117;-69
2021/12/29 10:29:07;;;;;;;15.50;5.25;;;8.70;99.90;;;;;;4970696;28;20089;-69
2021/12/29 10:31:40;;;;;;;22.33;5.22;;;8.60;99.90;;;;;;4973717;28;20331;-69
2021/12/29 10:34:09;;;;;;;17.38;4.88;;;8.70;99.90;;;;;;4973521;28;20053;-70
2021/12/29 10:36:46;;;;;;;18.88;4.80;;;8.60;99.90;;;;;;4958264;28;20070;-70
2021/12/29 10:39:19;;;;;;;14.73;5.25;;;8.60;99.90;;;;;;4972138;28;20524;-70
2021/12/29 10:41:50;;;;;;;21.88;5.43;;;8.70;99.90;;;;;;4975666;28;20465;-71
2021/12/29 10:44:28;;;;;;;17.88;5.18;;;8.70;99.90;;;;;;4970848;28;20038;-68
2021/12/29 10:46:56;;;;;;;18.92;5.70;;;8.70;99.90;;;;;;4958222;28;20116;-67
2021/12/29 10:49:23;;;;;;;21.67;5.90;;;8.70;99.90;;;;;;4957476;28;20066;-67
2021/12/29 10:51:49;;;;;;;28.02;6.30;;;8.60;99.90;;;;;;4978770;28;20042;-69
2021/12/29 10:54:19;;;;;;;20.58;5.80;;;8.50;99.90;;;;;;4969137;28;20046;-69
2021/12/29 10:56:57;;;;;;;17.33;5.80;;;8.60;99.90;;;;;;4990911;28;20088;-65
2021/12/29 10:59:28;;;;;;;22.88;5.07;;;8.80;99.90;;;;;;4981883;28;20129;-66
2021/12/29 11:01:54;;;;;;;20.63;5.85;;;8.80;99.90;;;;;;4973447;28;20038;-67
2021/12/29 11:04:22;;;;;;;26.88;7.32;;;8.90;99.90;;;;;;4957675;28;20056;-65
2021/12/29 11:06:49;;;;;;;29.73;6.28;;;8.90;99.90;;;;;;4982690;28;20128;-66
2021/12/29 11:09:42;;;;;;;22.95;6.05;;;8.90;99.90;;;;;;4973834;28;20563;-66
2021/12/29 11:12:12;;;;;;;18.65;6.32;;;9.00;99.90;;;;;;4965961;28;20501;-65
2021/12/29 11:14:42;;;;;;;31.70;6.63;;;9.00;99.90;;;;;;4961298;28;20045;-64
2021/12/29 11:17:15;;;;;;;25.67;6.60;;;9.20;99.90;;;;;;4977191;28;20096;-67
2021/12/29 11:19:50;;;;;;;18.77;6.63;;;9.20;99.90;;;;;;4976935;28;20496;-68
2021/12/29 11:22:18;;;;;;;22.45;5.68;;;9.10;99.90;;;;;;4994788;28;20077;-67
2021/12/29 11:24:52;;;;;;;22.60;5.68;;;9.00;99.90;;;;;;4977513;28;20050;-67
2021/12/29 11:27:18;;;;;;;15.50;5.05;;;9.10;99.90;;;;;;4994644;28;20045;-68
2021/12/29 11:30:11;;;;;;;16.45;4.15;;;9.20;99.90;;;;;;4995236;28;20101;-68
2021/12/29 11:32:43;;;;;;;17.05;4.57;;;9.00;99.90;;;;;;4989137;28;20054;-68
2021/12/29 11:35:09;;;;;;;14.32;4.75;;;9.20;99.90;;;;;;4990011;28;20042;-68
2021/12/29 11:37:40;;;;;;;16.63;4.22;;;9.10;99.90;;;;;;4967736;28;20047;-68
2021/12/29 11:40:09;;;;;;;16.30;4.93;;;8.90;99.90;;;;;;4967911;28;20054;-68
2021/12/29 11:42:35;;;;;;;16.40;4.93;;;9.00;99.90;;;;;;4960939;28;20065;-67
2021/12/29 11:45:01;;;;;;;11.98;4.78;;;9.00;99.90;;;;;;4957597;28;20485;-67
2021/12/29 11:47:27;;;;;;;15.07;4.78;;;;;;;;;;4974717;28;20038;-66
2021/12/29 11:49:53;;;;;;;14.32;5.10;;;;;;;;;;4968164;28;20046;-68
2021/12/29 11:52:40;;;;;;;14.13;5.18;;;9.10;99.90;;;;;;4994046;28;20053;-66
2021/12/29 11:55:12;;;;;;;14.15;4.43;;;8.90;99.90;;;;;;4985946;28;20046;-66
2021/12/29 11:57:38;;;;;;;15.77;5.28;;;8.90;99.90;;;;;;4979110;28;20053;-67
2021/12/29 12:00:19;;;;;;;13.35;5.40;;;8.70;99.90;;;;;;4974502;28;20200;-67
2021/12/29 12:02:51;;;;;;;14.90;4.53;;;8.90;99.90;;;;;;4956917;28;20130;-72
2021/12/29 12:05:22;;;;;;;16.40;5.25;;;8.90;99.90;;;;;;4977026;28;20093;-66
2021/12/29 12:07:49;;;;;;;15.35;5.15;;;8.80;99.90;;;;;;4989512;28;20058;-67
2021/12/29 12:10:33;;;;;;;18.38;4.57;;;8.80;99.90;;;;;;4992254;28;20129;-68
2021/12/29 12:12:59;;;;;;;13.82;4.10;;;8.80;99.90;;;;;;4975063;28;20042;-67
2021/12/29 12:15:30;;;;;;;19.75;4.80;;;8.80;99.90;;;;;;4969905;28;20122;-67
2021/12/29 12:17:56;;;;;;;14.98;5.22;;;;;;;;;;4986369;28;20053;-67
2021/12/29 12:20:22;;;;;;;19.83;4.88;;;8.60;99.90;;;;;;4988845;28;20041;-67
2021/12/29 12:22:50;;;;;;;15.02;5.25;;;8.40;99.90;;;;;;4991776;28;20084;-67
2021/12/29 12:25:25;;;;;;;13.75;5.63;;;8.70;99.90;;;;;;4986379;28;20049;-67
2021/12/29 12:28:00;;;;;;;;;;;8.60;99.90;;;;;;4986589;28;20544;-68
2021/12/29 12:30:35;;;;;;;16.00;6.50;;;8.60;99.90;;;;;;4974074;28;20300;-68
2021/12/29 12:33:17;;;;;;;18.50;7.25;;;8.60;99.90;;;;;;4979668;28;20058;-67
2021/12/29 12:35:48;;;;;;;12.85;5.88;;;8.70;99.90;;;;;;4988436;28;20041;-69
2021/12/29 12:38:27;;;;;;;19.10;7.00;;;8.70;99.90;;;;;;4965920;28;20074;-66
2021/12/29 12:41:05;;;;;;;15.07;5.68;;;8.70;99.90;;;;;;4972373;28;20082;-66
2021/12/29 12:43:31;;;;;;;23.08;7.10;;;;;;;;;;4976447;28;20085;-67
2021/12/29 12:45:57;;;;;;;19.83;7.68;;;8.40;99.90;;;;;;4974798;28;20400;-66
2021/12/29 12:48:27;;;;;;;12.93;5.75;;;8.60;99.90;;;;;;4957295;28;20460;-71
2021/12/29 12:50:55;;;;;;;18.08;7.15;;;8.50;99.90;;;;;;4979424;28;20056;-69
2021/12/29 12:53:31;;;;;;;20.10;7.13;;;8.60;99.90;;;;;;4974340;28;20035;-66
2021/12/29 12:55:57;;;;;;;21.90;8.27;;;8.60;99.90;;;;;;4961515;28;20488;-68
2021/12/29 12:58:27;;;;;;;21.40;7.00;;;8.60;99.90;;;;;;4962242;28;20042;-67
2021/12/29 13:01:03;;;;;;;26.13;6.65;;;8.60;99.90;;;;;;4984844;28;20038;-67
2021/12/29 13:03:31;;;;;;;24.75;9.30;;;8.70;99.90;;;;;;4976527;28;20527;-69
2021/12/29 13:05:59;;;;;;;24.35;7.55;;;8.60;99.90;;;;;;4975770;28;20038;-67
2021/12/29 13:08:37;;;;;;;25.80;7.50;;;8.70;99.90;;;;;;4957777;28;20163;-67
2021/12/29 13:11:13;;;;;;;29.65;9.45;;;8.60;99.90;;;;;;4969854;28;20449;-67